createdAt,value
2022-10-18T00:00:56.813Z,24.70
2022-10-18T00:03:38.019Z,27.30
2022-10-18T00:06:09.292Z,18.30
2022-10-18T00:08:39.223Z,15.90
2022-10-18T00:11:08.242Z,16.40
2022-10-18T00:13:36.936Z,15.70
2022-10-18T00:16:13.591Z,19.10
2022-10-18T00:18:42.854Z,21.30
2022-10-18T00:21:15.588Z,19.00
2022-10-18T00:23:45.498Z,16.80
2022-10-18T00:26:14.447Z,16.60
2022-10-18T00:28:43.458Z,19.20
2022-10-18T00:31:17.478Z,22.70
2022-10-18T00:33:50.875Z,15.70
2022-10-18T00:36:19.469Z,16.60
2022-10-18T00:38:48.948Z,15.30
2022-10-18T00:41:25.072Z,12.60
2022-10-18T00:44:03.779Z,17.40
2022-10-18T00:46:38.082Z,18.60
2022-10-18T00:49:16.902Z,16.20
2022-10-18T00:52:03.603Z,14.80
2022-10-18T00:54:37.013Z,13.40
2022-10-18T00:57:06.424Z,13.10
2022-10-18T00:59:36.294Z,15.20
2022-10-18T01:02:05.754Z,11.10
2022-10-18T01:04:34.730Z,13.50
2022-10-18T01:07:33.928Z,17.20
2022-10-18T01:10:18.730Z,12.10
2022-10-18T01:13:04.839Z,15.90
2022-10-18T01:16:19.127Z,10.40
2022-10-18T01:19:06.288Z,14.30
2022-10-18T01:22:02.515Z,13.60
2022-10-18T01:24:39.193Z,11.10
2022-10-18T01:27:32.534Z,13.20
2022-10-18T01:30:39.202Z,15.50
2022-10-18T01:33:26.808Z,14.60
2022-10-18T01:36:42.749Z,19.70
2022-10-18T01:39:36.468Z,13.90
2022-10-18T01:42:09.951Z,12.80
2022-10-18T01:44:41.221Z,12.50
2022-10-18T01:47:13.404Z,10.90
2022-10-18T01:49:41.408Z,13.00
2022-10-18T01:52:14.313Z,9.60
2022-10-18T01:54:51.248Z,12.30
2022-10-18T01:57:46.377Z,9.80
2022-10-18T02:00:37.075Z,11.80
2022-10-18T02:03:21.337Z,11.50
2022-10-18T02:06:02.491Z,9.60
2022-10-18T02:08:51.040Z,12.30
2022-10-18T02:11:19.177Z,8.30
2022-10-18T02:14:06.202Z,9.70
2022-10-18T02:16:52.170Z,12.20
2022-10-18T02:19:30.946Z,9.20
2022-10-18T02:22:00.136Z,11.00
2022-10-18T02:24:37.904Z,12.60
2022-10-18T02:27:06.260Z,10.60
2022-10-18T02:29:35.105Z,12.40
2022-10-18T02:32:19.750Z,16.80
2022-10-18T02:35:52.489Z,11.30
2022-10-18T02:38:23.880Z,11.20
2022-10-18T02:40:52.212Z,8.60
2022-10-18T02:43:20.058Z,14.50
2022-10-18T02:45:47.943Z,10.10
2022-10-18T02:48:15.855Z,9.80
2022-10-18T02:50:43.689Z,11.40
2022-10-18T02:53:11.512Z,20.60
2022-10-18T02:55:39.329Z,9.40
2022-10-18T02:58:07.184Z,9.20
2022-10-18T03:00:35.000Z,11.70
2022-10-18T03:03:02.882Z,11.80
2022-10-18T03:05:30.719Z,8.10
2022-10-18T03:07:58.541Z,10.70
2022-10-18T03:10:26.405Z,10.70
2022-10-18T03:12:54.583Z,9.60
2022-10-18T03:15:22.412Z,9.60
2022-10-18T03:17:50.260Z,11.40
2022-10-18T03:20:18.135Z,8.00
2022-10-18T03:22:45.930Z,9.10
2022-10-18T03:25:13.922Z,10.30
2022-10-18T03:27:41.802Z,13.10
2022-10-18T03:30:11.808Z,8.90
2022-10-18T03:32:41.023Z,9.90
2022-10-18T03:35:09.695Z,8.10
2022-10-18T03:37:38.515Z,6.30
2022-10-18T03:40:07.671Z,8.60
2022-10-18T03:42:35.558Z,9.20
2022-10-18T03:45:04.487Z,9.20
2022-10-18T03:47:32.295Z,9.90
2022-10-18T03:50:00.165Z,10.40
2022-10-18T03:52:28.274Z,7.70
2022-10-18T03:54:56.189Z,9.00
2022-10-18T03:57:24.049Z,6.20
2022-10-18T03:59:51.906Z,10.40
2022-10-18T04:02:19.725Z,9.60
2022-10-18T04:04:47.575Z,8.30
2022-10-18T04:07:15.945Z,10.40
2022-10-18T04:09:43.942Z,7.70
2022-10-18T04:12:11.833Z,8.00
2022-10-18T04:14:39.676Z,7.70
2022-10-18T04:17:07.700Z,7.50
2022-10-18T04:19:35.663Z,8.40
2022-10-18T04:22:03.640Z,5.80
2022-10-18T04:24:31.458Z,6.20
2022-10-18T04:26:59.356Z,7.10
2022-10-18T04:29:27.169Z,8.40
2022-10-18T04:31:54.998Z,8.90
2022-10-18T04:34:23.205Z,13.20
2022-10-18T04:36:51.099Z,10.40
2022-10-18T04:39:18.943Z,8.10
2022-10-18T04:41:46.741Z,12.50
2022-10-18T04:44:14.586Z,12.30
2022-10-18T04:46:42.427Z,8.30
2022-10-18T04:49:10.276Z,8.10
2022-10-18T04:51:38.202Z,6.40
2022-10-18T04:54:06.751Z,7.70
2022-10-18T04:56:34.935Z,9.40
2022-10-18T04:59:02.778Z,10.80
2022-10-18T05:01:30.677Z,9.40
2022-10-18T05:03:58.537Z,8.50
2022-10-18T05:06:26.343Z,10.90
2022-10-18T05:08:54.157Z,8.80
2022-10-18T05:11:21.989Z,8.30
2022-10-18T05:13:50.939Z,6.10
2022-10-18T05:16:19.061Z,8.70
2022-10-18T05:18:46.917Z,8.80
2022-10-18T05:21:14.872Z,6.10
2022-10-18T05:23:42.714Z,5.20
2022-10-18T05:26:10.612Z,8.60
2022-10-18T05:28:40.207Z,7.40
2022-10-18T05:31:11.868Z,10.30
2022-10-18T05:33:40.352Z,19.10
2022-10-18T05:36:08.815Z,7.40
2022-10-18T05:38:45.398Z,7.80
2022-10-18T05:41:14.033Z,9.00
2022-10-18T05:43:41.887Z,6.10
2022-10-18T05:46:15.084Z,8.20
2022-10-18T05:48:49.131Z,6.20
2022-10-18T05:51:18.765Z,8.60
2022-10-18T05:53:46.719Z,8.40
2022-10-18T05:56:14.958Z,8.00
2022-10-18T05:58:43.370Z,6.80
2022-10-18T06:01:11.289Z,8.00
2022-10-18T06:03:39.248Z,7.60
2022-10-18T06:06:10.700Z,10.00
2022-10-18T06:08:40.910Z,6.00
2022-10-18T06:11:15.727Z,7.80
2022-10-18T06:13:49.783Z,8.00
2022-10-18T06:16:21.899Z,8.60
2022-10-18T06:18:52.803Z,8.10
2022-10-18T06:21:22.333Z,8.20
2022-10-18T06:23:56.263Z,7.30
2022-10-18T06:26:25.969Z,8.40
2022-10-18T06:28:53.898Z,6.40
2022-10-18T06:31:21.904Z,7.40
2022-10-18T06:33:49.996Z,8.50
2022-10-18T06:36:24.051Z,6.30
2022-10-18T06:38:52.629Z,9.00
2022-10-18T06:41:20.791Z,7.50
2022-10-18T06:43:57.566Z,8.70
2022-10-18T06:46:26.072Z,7.80
2022-10-18T06:48:54.130Z,8.20
2022-10-18T06:51:21.986Z,7.70
2022-10-18T06:53:59.637Z,8.40
2022-10-18T06:56:38.273Z,12.30
2022-10-18T06:59:06.319Z,10.20
2022-10-18T07:01:34.759Z,8.00
2022-10-18T07:04:02.839Z,6.20
2022-10-18T07:06:30.773Z,8.60
2022-10-18T07:08:58.689Z,6.80
2022-10-18T07:11:27.412Z,12.60
2022-10-18T07:14:04.969Z,10.30
2022-10-18T07:16:34.060Z,10.00
2022-10-18T07:19:02.216Z,10.30
2022-10-18T07:21:30.569Z,10.90
2022-10-18T07:23:58.565Z,9.40
2022-10-18T07:26:30.768Z,15.40
2022-10-18T07:29:09.116Z,12.40
2022-10-18T07:31:38.824Z,13.70
2022-10-18T07:34:10.819Z,12.40
2022-10-18T07:36:39.162Z,10.60
2022-10-18T07:39:07.788Z,12.60
2022-10-18T07:41:36.262Z,7.30
2022-10-18T07:44:04.929Z,8.30
2022-10-18T07:46:32.877Z,11.30
2022-10-18T07:49:00.867Z,7.80
2022-10-18T07:51:30.954Z,7.70
2022-10-18T07:53:59.663Z,10.90
2022-10-18T07:56:27.949Z,7.60
2022-10-18T07:58:57.018Z,12.00
2022-10-18T08:01:26.018Z,8.20
2022-10-18T08:03:54.390Z,14.20
2022-10-18T08:06:23.594Z,8.10
2022-10-18T08:08:52.420Z,8.20
2022-10-18T08:11:25.027Z,11.40
2022-10-18T08:13:54.277Z,11.40
2022-10-18T08:16:28.233Z,9.50
2022-10-18T08:18:58.589Z,9.70
2022-10-18T08:21:26.984Z,9.80
2022-10-18T08:23:55.337Z,10.70
2022-10-18T08:26:23.628Z,11.30
2022-10-18T08:29:10.320Z,10.70
2022-10-18T08:31:39.708Z,9.20
2022-10-18T08:34:07.669Z,11.40
2022-10-18T08:36:35.565Z,10.20
2022-10-18T08:39:04.040Z,9.30
2022-10-18T08:41:37.702Z,8.20
2022-10-18T08:44:24.597Z,12.60
2022-10-18T08:47:02.919Z,13.00
2022-10-18T08:49:47.094Z,11.20
2022-10-18T08:52:57.875Z,12.50
2022-10-18T08:55:37.325Z,11.40
2022-10-18T08:58:22.741Z,9.90
2022-10-18T09:00:53.449Z,11.20
2022-10-18T09:03:43.013Z,16.90
2022-10-18T09:06:28.288Z,15.10
2022-10-18T09:09:11.414Z,12.40
2022-10-18T09:11:47.388Z,15.50
2022-10-18T09:14:45.711Z,16.10
2022-10-18T09:17:28.762Z,13.70
2022-10-18T09:20:25.841Z,14.60
2022-10-18T09:23:19.815Z,15.00
2022-10-18T09:25:55.208Z,18.50
2022-10-18T09:28:57.555Z,17.70
2022-10-18T09:31:51.523Z,16.20
2022-10-18T09:34:23.489Z,20.10
2022-10-18T09:36:52.704Z,17.20
2022-10-18T09:39:31.010Z,19.60
2022-10-18T09:42:26.938Z,19.10
2022-10-18T09:45:04.507Z,14.60
2022-10-18T09:47:44.711Z,18.40
2022-10-18T09:50:27.626Z,17.40
2022-10-18T09:53:26.431Z,16.80
2022-10-18T09:56:02.409Z,16.00
2022-10-18T09:58:46.462Z,17.00
2022-10-18T10:01:28.608Z,17.00
2022-10-18T10:03:57.081Z,14.90
2022-10-18T10:06:38.703Z,7.90
2022-10-18T10:11:51.520Z,16.00
2022-10-18T10:14:26.714Z,12.20
2022-10-18T10:17:02.579Z,13.80
2022-10-18T10:19:57.056Z,15.30
2022-10-18T10:22:42.351Z,17.50
2022-10-18T10:25:25.943Z,19.20
2022-10-18T10:27:54.172Z,17.70
2022-10-18T10:30:31.807Z,16.40
2022-10-18T10:32:59.844Z,12.80
2022-10-18T10:35:54.017Z,14.50
2022-10-18T10:38:28.576Z,20.30
2022-10-18T10:40:57.630Z,19.10
2022-10-18T10:43:38.757Z,16.80
2022-10-18T10:46:10.999Z,13.80
2022-10-18T10:48:48.439Z,16.80
2022-10-18T10:51:37.252Z,17.60
2022-10-18T10:54:17.130Z,8.70
2022-10-18T10:57:11.326Z,10.00
2022-10-18T10:59:52.429Z,9.00
2022-10-18T11:02:29.436Z,12.50
2022-10-18T11:05:29.564Z,12.00
2022-10-18T11:08:02.921Z,8.70
2022-10-18T11:10:38.359Z,6.70
2022-10-18T11:13:35.719Z,10.20
2022-10-18T11:16:17.479Z,5.60
2022-10-18T11:18:49.740Z,12.80
2022-10-18T11:21:27.490Z,11.30
2022-10-18T11:23:57.346Z,11.30
2022-10-18T11:26:48.819Z,10.90
2022-10-18T11:29:40.440Z,9.80
2022-10-18T11:32:19.003Z,8.30
2022-10-18T11:35:29.650Z,7.50
2022-10-18T11:38:42.354Z,14.40
2022-10-18T11:41:28.336Z,11.50
2022-10-18T11:44:04.464Z,10.60
2022-10-18T11:47:11.133Z,9.60
2022-10-18T11:49:57.481Z,7.80
2022-10-18T11:52:58.708Z,8.90
2022-10-18T11:55:46.559Z,9.10
2022-10-18T11:58:42.840Z,7.70
2022-10-18T12:01:37.231Z,14.50
2022-10-18T12:04:17.916Z,12.20
2022-10-18T12:06:50.106Z,8.80
2022-10-18T12:09:37.831Z,7.80
2022-10-18T12:12:53.908Z,7.20
2022-10-18T12:15:25.745Z,10.70
2022-10-18T12:17:58.847Z,12.00
2022-10-18T12:20:43.186Z,8.50
2022-10-18T12:23:29.180Z,9.20
2022-10-18T12:26:03.937Z,9.60
2022-10-18T12:29:19.782Z,5.90
2022-10-18T12:31:52.859Z,12.50
2022-10-18T12:34:23.855Z,10.10
2022-10-18T12:37:28.778Z,11.30
2022-10-18T12:40:16.814Z,11.80
2022-10-18T12:42:50.530Z,11.30
2022-10-18T12:45:33.290Z,12.10
2022-10-18T12:48:06.726Z,10.00
2022-10-18T12:50:43.837Z,12.80
2022-10-18T12:53:23.215Z,6.90
2022-10-18T12:55:53.695Z,9.90
2022-10-18T12:58:30.854Z,11.40
2022-10-18T13:01:02.641Z,11.50
2022-10-18T13:03:55.195Z,13.50
2022-10-18T13:06:24.225Z,8.60
2022-10-18T13:09:21.135Z,10.80
2022-10-18T13:11:50.181Z,14.60
2022-10-18T13:14:35.534Z,11.00
2022-10-18T13:17:26.339Z,9.20
2022-10-18T13:20:25.024Z,12.20
2022-10-18T13:26:21.651Z,10.40
2022-10-18T13:28:54.592Z,9.90
2022-10-18T13:31:34.587Z,9.90
2022-10-18T13:34:35.476Z,13.90
2022-10-18T13:37:18.842Z,12.90
2022-10-18T13:39:47.599Z,13.40
2022-10-18T13:42:15.324Z,9.90
2022-10-18T13:44:44.755Z,11.50
2022-10-18T13:47:31.967Z,10.00
2022-10-18T13:50:26.713Z,12.60
2022-10-18T13:53:24.068Z,5.70
2022-10-18T13:56:06.550Z,9.90
2022-10-18T13:59:06.079Z,12.10
2022-10-18T14:02:51.471Z,13.90
2022-10-18T14:05:29.231Z,9.10
2022-10-18T14:08:08.077Z,12.80
2022-10-18T14:11:10.186Z,10.00
2022-10-18T14:14:02.347Z,10.20
2022-10-18T14:16:43.482Z,8.10
2022-10-18T14:19:29.410Z,8.60
2022-10-18T14:22:22.233Z,7.30
2022-10-18T14:24:59.607Z,9.80
2022-10-18T14:27:33.096Z,9.60
2022-10-18T14:30:15.659Z,12.60
2022-10-18T14:32:50.692Z,12.40
2022-10-18T14:35:33.561Z,11.70
2022-10-18T14:38:02.882Z,11.40
2022-10-18T14:40:41.333Z,10.00
2022-10-18T14:43:09.089Z,8.70
2022-10-18T14:45:36.994Z,16.10
2022-10-18T14:48:15.083Z,8.00
2022-10-18T14:50:50.744Z,13.50
2022-10-18T14:53:25.188Z,11.30
2022-10-18T14:55:56.518Z,12.60
2022-10-18T14:58:24.611Z,12.60
2022-10-18T15:00:54.194Z,8.90
2022-10-18T15:03:22.713Z,9.00
2022-10-18T15:05:55.443Z,10.60
2022-10-18T15:08:26.831Z,7.30
2022-10-18T15:10:55.307Z,8.30
2022-10-18T15:13:25.167Z,7.80
2022-10-18T15:15:55.370Z,8.60
2022-10-18T15:18:26.937Z,9.00
2022-10-18T15:21:24.135Z,9.70
2022-10-18T15:23:52.459Z,9.20
2022-10-18T15:26:30.430Z,6.50
2022-10-18T15:29:01.534Z,10.50
2022-10-18T15:31:37.444Z,7.80
2022-10-18T15:34:18.601Z,11.80
2022-10-18T15:36:48.899Z,8.80
2022-10-18T15:39:32.017Z,7.70
2022-10-18T15:42:02.519Z,11.10
2022-10-18T15:44:34.641Z,10.00
2022-10-18T15:47:20.563Z,12.20
2022-10-18T15:49:54.578Z,7.10
2022-10-18T15:52:43.370Z,8.90
2022-10-18T15:55:29.753Z,10.00
2022-10-18T15:58:13.148Z,9.90
2022-10-18T16:00:44.158Z,10.60
2022-10-18T16:03:12.681Z,8.40
2022-10-18T16:05:41.298Z,11.40
2022-10-18T16:08:26.441Z,9.50
2022-10-18T16:10:54.472Z,10.90
2022-10-18T16:13:22.375Z,10.90
2022-10-18T16:15:50.604Z,12.00
2022-10-18T16:18:20.503Z,11.00
2022-10-18T16:20:48.844Z,9.10
2022-10-18T16:23:21.775Z,10.70
2022-10-18T16:25:50.685Z,9.30
2022-10-18T16:28:22.782Z,10.30
2022-10-18T16:31:01.821Z,12.00
2022-10-18T16:33:30.996Z,10.20
2022-10-18T16:35:59.539Z,10.60
2022-10-18T16:38:37.567Z,9.00
2022-10-18T16:41:08.425Z,11.20
2022-10-18T16:43:37.121Z,9.40
2022-10-18T16:46:05.684Z,9.30
2022-10-18T16:48:34.115Z,14.30
2022-10-18T16:51:02.488Z,7.00
2022-10-18T16:53:30.520Z,15.10
2022-10-18T16:56:02.265Z,11.80
2022-10-18T16:58:33.037Z,11.80
2022-10-18T17:01:02.914Z,10.70
2022-10-18T17:03:33.248Z,11.60
2022-10-18T17:06:01.214Z,9.80
2022-10-18T17:08:29.153Z,8.60
2022-10-18T17:10:59.383Z,10.60
2022-10-18T17:13:27.393Z,10.40
2022-10-18T17:15:55.291Z,10.30
2022-10-18T17:18:30.617Z,9.20
2022-10-18T17:21:02.596Z,8.50
2022-10-18T17:23:31.193Z,13.70
2022-10-18T17:26:07.173Z,12.50
2022-10-18T17:28:50.894Z,13.60
2022-10-18T17:31:18.812Z,12.40
2022-10-18T17:33:47.131Z,12.80
2022-10-18T17:36:17.556Z,13.70
2022-10-18T17:38:48.278Z,12.30
2022-10-18T17:41:16.334Z,10.30
2022-10-18T17:43:44.591Z,16.80
2022-10-18T17:46:14.244Z,13.60
2022-10-18T17:48:42.243Z,14.40
2022-10-18T17:51:14.427Z,19.40
2022-10-18T17:53:42.490Z,19.80
2022-10-18T17:56:12.399Z,15.10
2022-10-18T17:58:43.247Z,14.10
2022-10-18T18:01:23.282Z,16.90
2022-10-18T18:04:01.299Z,14.50
2022-10-18T18:06:35.602Z,17.80
2022-10-18T18:09:09.372Z,15.30
2022-10-18T18:11:43.424Z,14.00
2022-10-18T18:14:12.318Z,15.70
2022-10-18T18:16:44.475Z,18.30
2022-10-18T18:19:13.695Z,17.30
2022-10-18T18:21:42.942Z,22.10
2022-10-18T18:24:11.553Z,19.90
2022-10-18T18:26:41.931Z,14.20
2022-10-18T18:29:12.936Z,15.20
2022-10-18T18:31:43.745Z,15.40
2022-10-18T18:34:12.056Z,16.00
2022-10-18T18:36:41.321Z,13.30
2022-10-18T18:39:19.189Z,18.50
2022-10-18T18:41:50.471Z,15.90
2022-10-18T18:44:20.551Z,16.40
2022-10-18T18:46:49.018Z,24.10
2022-10-18T18:49:16.884Z,11.30
2022-10-18T18:51:44.813Z,9.30
2022-10-18T18:54:15.161Z,15.30
2022-10-18T18:56:43.351Z,14.90
2022-10-18T18:59:15.706Z,11.90
2022-10-18T19:01:44.574Z,22.40
2022-10-18T19:04:12.785Z,17.30
2022-10-18T19:06:44.368Z,15.90
2022-10-18T19:09:22.015Z,17.60
2022-10-18T19:11:53.322Z,18.30
2022-10-18T19:16:58.912Z,16.60
2022-10-18T19:19:30.986Z,18.50
2022-10-18T19:22:03.661Z,19.80
2022-10-18T19:24:32.125Z,22.10
2022-10-18T19:27:12.535Z,16.00
2022-10-18T19:29:41.802Z,21.80
2022-10-18T19:32:12.295Z,18.60
2022-10-18T19:34:40.491Z,15.30
2022-10-18T19:37:11.876Z,15.10
2022-10-18T19:39:39.876Z,10.30
2022-10-18T19:42:21.181Z,12.70
2022-10-18T19:44:54.173Z,13.70
2022-10-18T19:47:22.106Z,9.10
2022-10-18T19:49:50.358Z,11.00
2022-10-18T19:52:18.347Z,11.60
2022-10-18T19:54:49.486Z,13.30
2022-10-18T19:57:17.451Z,10.90
2022-10-18T19:59:46.054Z,12.10
2022-10-18T20:02:15.266Z,13.00
2022-10-18T20:04:43.334Z,12.10
2022-10-18T20:07:11.301Z,11.60
2022-10-18T20:09:39.904Z,11.40
2022-10-18T20:12:07.843Z,9.60
2022-10-18T20:14:35.732Z,11.60
2022-10-18T20:17:03.913Z,13.20
2022-10-18T20:19:31.892Z,13.80
2022-10-18T20:21:59.720Z,12.20
2022-10-18T20:24:27.634Z,13.20
2022-10-18T20:26:55.529Z,9.70
2022-10-18T20:29:25.390Z,10.30
2022-10-18T20:31:55.952Z,14.30
2022-10-18T20:34:26.101Z,11.10
2022-10-18T20:36:55.436Z,14.60
2022-10-18T20:39:23.541Z,12.00
2022-10-18T20:41:51.458Z,12.70
2022-10-18T20:44:22.707Z,7.90
2022-10-18T20:46:51.109Z,13.30
2022-10-18T20:49:19.429Z,10.50
2022-10-18T20:51:47.359Z,12.20
2022-10-18T20:54:15.313Z,8.20
2022-10-18T20:56:43.213Z,10.80
2022-10-18T20:59:11.641Z,7.30
2022-10-18T21:01:39.827Z,8.30
2022-10-18T21:04:10.619Z,10.50
2022-10-18T21:06:43.485Z,8.70
2022-10-18T21:09:19.331Z,11.20
2022-10-18T21:11:53.842Z,9.10
2022-10-18T21:14:24.828Z,11.90
2022-10-18T21:16:52.920Z,13.30
2022-10-18T21:19:27.290Z,12.10
2022-10-18T21:21:57.859Z,11.60
2022-10-18T21:24:27.680Z,11.10
2022-10-18T21:26:56.292Z,13.10
2022-10-18T21:29:27.268Z,10.90
2022-10-18T21:31:59.106Z,11.10
2022-10-18T21:34:27.014Z,14.90
2022-10-18T21:36:54.971Z,12.40
2022-10-18T21:41:57.216Z,11.90
2022-10-18T21:44:25.481Z,12.20
2022-10-18T21:46:55.026Z,13.40
2022-10-18T21:49:25.011Z,9.30
2022-10-18T21:51:52.956Z,13.30
2022-10-18T21:54:20.911Z,10.30
2022-10-18T21:56:48.799Z,13.20
2022-10-18T21:59:16.673Z,9.30
2022-10-18T22:01:45.716Z,14.40
2022-10-18T22:04:25.396Z,14.30
2022-10-18T22:06:53.292Z,11.60
2022-10-18T22:09:22.187Z,10.40
2022-10-18T22:11:53.252Z,9.80
2022-10-18T22:14:22.063Z,8.40
2022-10-18T22:16:50.103Z,9.30
2022-10-18T22:19:18.346Z,14.50
2022-10-18T22:21:46.417Z,12.50
2022-10-18T22:24:14.555Z,12.90
2022-10-18T22:26:44.303Z,7.80
2022-10-18T22:29:13.538Z,14.40
2022-10-18T22:31:49.311Z,13.60
2022-10-18T22:34:21.014Z,16.20
2022-10-18T22:36:49.296Z,9.70
2022-10-18T22:39:18.084Z,17.80
2022-10-18T22:41:46.908Z,12.80
2022-10-18T22:44:15.419Z,13.60
2022-10-18T22:46:43.618Z,14.10
2022-10-18T22:49:12.665Z,11.50
2022-10-18T22:51:40.637Z,8.60
2022-10-18T22:54:09.228Z,11.10
2022-10-18T22:56:37.105Z,14.10
2022-10-18T22:59:04.991Z,9.10
2022-10-18T23:01:32.875Z,17.90
2022-10-18T23:04:02.124Z,15.00
2022-10-18T23:06:33.988Z,14.30
2022-10-18T23:09:07.627Z,12.40
2022-10-18T23:11:36.604Z,10.30
2022-10-18T23:14:06.594Z,14.30
2022-10-18T23:16:35.284Z,10.50
2022-10-18T23:19:04.231Z,12.80
2022-10-18T23:21:34.159Z,11.50
2022-10-18T23:24:02.061Z,12.00
2022-10-18T23:26:29.923Z,16.70
2022-10-18T23:28:57.932Z,11.70
2022-10-18T23:31:30.386Z,12.70
2022-10-18T23:34:03.648Z,17.60
2022-10-18T23:36:33.894Z,14.30
2022-10-18T23:39:04.041Z,14.30
2022-10-18T23:41:32.255Z,17.00
2022-10-18T23:44:00.121Z,13.70
2022-10-18T23:46:28.691Z,9.40
2022-10-18T23:48:56.514Z,11.70
2022-10-18T23:51:24.333Z,13.90
2022-10-18T23:53:52.263Z,11.00
2022-10-18T23:56:20.087Z,12.60
2022-10-18T23:58:47.875Z,11.20
